Time;durP1;ratioP1;P1;durP2;ratioP2;P2;SDS_P1;SDS_P2;PMS_P1;PMS_P2;Temp;Humidity;BMP_temperature;BMP_pressure;BME280_temperature;BME280_humidity;BME280_pressure;Samples;Min_cycle;Max_cycle;Signal;HPM_P1;HPM_P2
2022/02/06 00:00:01;;;;;;;78.97;7.45;;;;;;;7.27;100.00;100951.72;5052246;28;20029;-54
2022/02/06 00:02:34;;;;;;;72.72;9.30;;;;;;;7.25;100.00;100922.41;5044171;28;20088;-54
2022/02/06 00:05:00;;;;;;;102.20;10.60;;;;;;;7.28;100.00;100918.59;5050546;28;20095;-54
2022/02/06 00:07:26;;;;;;;85.47;7.82;;;;;;;7.27;100.00;100922.25;5041056;28;20033;-50
2022/02/06 00:09:51;;;;;;;80.00;8.48;;;;;;;7.25;100.00;100934.97;5046127;28;20132;-53
2022/02/06 00:12:16;;;;;;;81.50;9.20;;;;;;;7.21;100.00;100888.94;5042830;28;20432;-54
2022/02/06 00:14:42;;;;;;;80.45;7.78;;;;;;;7.19;100.00;100901.63;5059308;28;20159;-53
2022/02/06 00:17:08;;;;;;;94.20;9.43;;;;;;;7.26;100.00;100904.50;5044747;28;20492;-53
2022/02/06 00:19:34;;;;;;;84.55;9.35;;;;;;;7.24;100.00;100912.72;5033218;28;20227;-54
2022/02/06 00:22:02;;;;;;;103.45;10.48;;;;;;;7.25;100.00;100892.97;5050075;28;20583;-55
2022/02/06 00:24:50;;;;;;;84.70;8.27;;;;;;;7.20;100.00;100884.56;5039024;28;20170;-54
2022/02/06 00:27:29;;;;;;;77.70;8.70;;;;;;;7.21;100.00;100869.34;5047290;28;20091;-55
2022/02/06 00:30:04;;;;;;;86.10;9.38;;;;;;;7.23;100.00;100873.53;5053340;28;20033;-55
2022/02/06 00:32:41;;;;;;;91.63;8.07;;;;;;;7.25;100.00;100884.94;5037608;28;20120;-55
2022/02/06 00:43:19;;;;;;;99.70;9.45;;;;;;;7.32;100.00;100846.81;5044036;28;20048;-54
2022/02/06 00:45:44;;;;;;;87.30;9.20;;;;;;;7.33;100.00;100846.66;5034668;28;20026;-53
2022/02/06 00:48:09;;;;;;;82.55;9.63;;;;;;;7.35;100.00;100846.50;5053155;28;20098;-54
2022/02/06 00:50:38;;;;;;;79.57;9.02;;;;;;;7.35;100.00;100838.47;5053195;28;20477;-53
2022/02/06 00:53:07;;;;;;;77.25;9.13;;;;;;;7.38;100.00;100827.44;5053010;28;20082;-53
2022/02/06 00:55:33;;;;;;;109.60;9.05;;;;;;;7.39;100.00;100853.19;5050135;28;20055;-52
2022/02/06 00:57:58;;;;;;;90.30;9.30;;;;;;;7.39;100.00;100837.13;5033258;28;20517;-53
2022/02/06 01:00:24;;;;;;;105.68;10.00;;;;;;;7.40;100.00;100828.13;5049688;28;20028;-52
2022/02/06 01:02:50;;;;;;;99.90;9.13;;;;;;;7.41;100.00;100844.00;5052825;28;20123;-52
2022/02/06 01:05:15;;;;;;;96.68;10.85;;;;;;;7.41;100.00;100833.31;5052883;28;20473;-54
2022/02/06 01:07:41;;;;;;;92.50;8.68;;;;;;;7.46;99.90;100840.84;5038462;28;20029;-53
2022/02/06 01:10:06;;;;;;;93.07;8.52;;;;;;;7.48;99.66;100823.63;5033109;28;20097;-54
2022/02/06 01:12:34;;;;;;;87.70;9.05;;;;;;;7.48;99.88;100836.19;5045590;28;20104;-54
2022/02/06 01:17:36;;;;;;;104.47;8.77;;;;;;;7.45;99.94;100807.03;5047020;28;20059;-54
2022/02/06 01:20:11;;;;;;;105.00;11.05;;;;;;;7.46;100.00;100803.38;5039976;28;20449;-55
2022/02/06 01:22:46;;;;;;;75.78;8.45;;;;;;;7.47;100.00;100797.00;5031742;28;20508;-56
2022/02/06 01:25:16;;;;;;;94.93;11.60;;;;;;;7.44;100.00;100798.16;5043974;28;20094;-55
2022/02/06 01:27:53;;;;;;;100.93;9.07;;;;;;;7.44;100.00;100794.66;5046233;28;20069;-55
2022/02/06 01:30:28;;;;;;;98.43;9.27;;;;;;;7.46;100.00;100792.66;5046260;28;20035;-54
2022/02/06 01:33:10;;;;;;;90.38;10.65;;;;;;;7.48;100.00;100779.94;5043853;28;20041;-55
2022/02/06 01:35:43;;;;;;;105.18;9.23;;;;;;;7.52;99.89;100792.00;5032960;28;20037;-55
2022/02/06 01:38:24;;;;;;;87.18;9.77;;;;;;;7.57;99.36;100804.91;5038229;28;20345;-54
2022/02/06 01:43:20;;;;;;;96.15;8.57;;;;;;;7.55;99.51;100780.94;5048886;28;20114;-53
2022/02/06 01:46:09;;;;;;;93.50;8.65;;;;;;;7.52;100.00;100799.19;5049886;28;20399;-54
2022/02/06 02:07:47;;;;;;;101.30;9.98;;;;;;;7.54;100.00;100790.00;5044350;28;20129;-55
2022/02/06 02:16:22;;;;;;;93.40;9.57;;;;;;;7.51;100.00;100763.56;5040342;28;20068;-55
2022/02/06 02:49:35;;;;;;;90.22;9.00;;;;;;;7.47;100.00;100695.25;5038014;28;20505;-54
2022/02/06 02:52:06;;;;;;;98.10;10.25;;;;;;;7.45;100.00;100689.22;5031564;28;20037;-55
2022/02/06 02:54:34;;;;;;;92.20;9.23;;;;;;;7.43;100.00;100686.72;5036126;28;20028;-55
2022/02/06 03:00:09;;;;;;;90.32;9.50;;;;;;;7.44;100.00;100666.97;5034259;28;20035;-54
2022/02/06 03:02:34;;;;;;;79.88;8.60;;;;;;;7.43;100.00;100669.81;5041098;28;20033;-55
2022/02/06 03:05:02;;;;;;;88.88;8.82;;;;;;;7.43;100.00;100680.53;5032007;28;20045;-56
2022/02/06 03:07:27;;;;;;;79.28;8.27;;;;;;;7.45;100.00;100690.06;5044422;28;20025;-55
2022/02/06 03:09:53;;;;;;;78.45;7.65;;;;;;;7.47;100.00;100668.47;5031194;28;20036;-53
2022/02/06 03:12:24;;;;;;;77.78;7.70;;;;;;;7.47;100.00;100653.22;5038575;28;20397;-54
2022/02/06 03:14:57;;;;;;;88.57;8.00;;;;;;;7.48;100.00;100678.19;5039974;28;20052;-54
2022/02/06 03:17:34;;;;;;;80.90;8.40;;;;;;;7.47;100.00;100655.91;5033623;28;20047;-53
2022/02/06 03:20:07;;;;;;;80.13;7.40;;;;;;;7.50;100.00;100652.06;5039981;28;20033;-55
2022/02/06 03:22:38;;;;;;;74.45;7.38;;;;;;;7.50;100.00;100660.09;5037781;28;20047;-54
2022/02/06 03:25:08;;;;;;;87.88;8.32;;;;;;;7.51;100.00;100643.03;5036988;28;20482;-55
2022/02/06 03:27:33;;;;;;;80.97;8.63;;;;;;;7.53;100.00;100640.19;5045714;28;20025;-55
2022/02/06 03:29:58;;;;;;;82.22;9.15;;;;;;;7.53;100.00;100649.06;5045897;28;20091;-54
2022/02/06 03:32:24;;;;;;;89.32;8.57;;;;;;;7.53;100.00;100654.44;5037596;28;20508;-53
2022/02/06 03:34:49;;;;;;;95.95;9.48;;;;;;;7.56;99.97;100643.38;5034160;28;20036;-55
2022/02/06 03:37:14;;;;;;;93.43;8.88;;;;;;;7.58;99.54;100636.03;5049626;28;20025;-53
2022/02/06 03:39:42;;;;;;;74.00;7.05;;;;;;;7.59;99.50;100640.38;5038412;28;20052;-55
2022/02/06 03:42:12;;;;;;;81.28;8.88;;;;;;;7.59;99.53;100626.97;5034195;28;20470;-55
2022/02/06 03:44:50;;;;;;;82.15;8.95;;;;;;;7.62;99.01;100634.66;5044803;28;20048;-53
2022/02/06 03:47:24;;;;;;;76.00;7.93;;;;;;;7.61;98.42;100624.97;5034074;28;20040;-54
2022/02/06 03:50:00;;;;;;;82.45;9.38;;;;;;;7.67;98.04;100640.34;5034037;28;20037;-54
2022/02/06 03:52:32;;;;;;;85.60;8.73;;;;;;;7.70;97.82;100642.69;5045342;28;20040;-54
2022/02/06 03:54:58;;;;;;;73.47;7.57;;;;;;;7.74;97.26;100612.88;5043336;28;20060;-53
2022/02/06 03:57:23;;;;;;;73.10;7.75;;;;;;;7.74;97.52;100612.88;5037849;28;20056;-54
2022/02/06 03:59:48;;;;;;;88.28;8.20;;;;;;;7.70;97.41;100613.22;5032782;28;20048;-53
2022/02/06 04:02:14;;;;;;;67.32;9.27;;;;;;;7.71;97.69;100606.03;5043140;28;20048;-54
2022/02/06 04:04:39;;;;;;;71.57;8.60;;;;;;;7.72;97.14;100605.03;5023984;28;20033;-54
2022/02/06 04:07:08;;;;;;;75.65;7.97;;;;;;;7.74;97.28;100596.81;5050651;28;20021;-54
2022/02/06 04:09:43;;;;;;;89.85;8.85;;;;;;;7.79;96.98;100599.81;5042047;28;20443;-54
2022/02/06 04:12:10;;;;;;;76.50;7.57;;;;;;;7.78;96.43;100592.81;5051280;28;20056;-53
2022/02/06 04:14:43;;;;;;;79.40;8.00;;;;;;;7.78;96.92;100571.38;5045585;28;20040;-54
2022/02/06 04:17:21;;;;;;;71.47;6.57;;;;;;;7.79;96.20;100554.28;5033445;28;20714;-52
2022/02/06 04:19:46;;;;;;;67.82;8.13;;;;;;;7.77;96.37;100575.06;5037292;28;20049;-55
2022/02/06 04:22:11;;;;;;;82.00;8.25;;;;;;;7.76;96.45;100570.69;5039562;28;20436;-54
2022/02/06 04:24:37;;;;;;;65.50;6.53;;;;;;;7.77;95.96;100564.34;5034220;28;20108;-53
2022/02/06 04:27:02;;;;;;;82.50;7.80;;;;;;;7.76;95.98;100552.78;5035962;28;20150;-55
2022/02/06 04:29:28;;;;;;;91.03;8.05;;;;;;;7.75;96.22;100558.31;5032257;28;20064;-55
2022/02/06 04:31:53;;;;;;;61.60;7.03;;;;;;;7.79;95.46;100567.66;5035442;28;20034;-53
2022/02/06 04:34:23;;;;;;;58.30;6.95;;;;;;;7.81;95.04;100544.22;5038096;28;20474;-52
2022/02/06 04:37:16;;;;;;;79.78;8.52;;;;;;;7.83;94.99;100526.16;5042901;28;20033;-53
2022/02/06 04:50:30;;;;;;;78.70;7.75;;;;;;;7.84;94.49;100498.34;5042319;28;20036;-54
2022/02/06 04:55:56;;;;;;;85.35;8.43;;;;;;;7.86;93.94;100488.28;5046009;28;20093;-55
2022/02/06 05:12:53;;;;;;;72.18;8.07;;;;;;;7.84;95.48;100453.63;5047565;28;20035;-50
2022/02/06 05:15:03;;;;;;;73.72;7.35;;;;;;;7.85;95.51;100460.66;5032618;28;20091;-55
2022/02/06 05:20:41;;;;;;;56.47;6.88;;;;;;;7.88;95.38;100464.84;5040912;28;20047;-53
2022/02/06 05:28:33;;;;;;;61.95;6.93;;;;;;;7.90;95.27;100441.41;5036496;28;20354;-54
2022/02/06 05:31:05;;;;;;;61.47;6.28;;;;;;;7.91;95.13;100443.88;5039336;28;20048;-56
2022/02/06 05:33:31;;;;;;;65.72;7.85;;;;;;;7.90;95.36;100449.44;5042287;28;20435;-53
2022/02/06 05:35:57;;;;;;;62.72;6.70;;;;;;;7.91;95.12;100440.38;5033240;28;20063;-54
2022/02/06 05:38:22;;;;;;;55.92;6.25;;;;;;;7.88;95.49;100432.69;5040112;28;20030;-54
2022/02/06 05:40:48;;;;;;;76.00;7.43;;;;;;;7.91;94.88;100461.81;5036876;28;20060;-51
2022/02/06 05:43:13;;;;;;;82.97;8.90;;;;;;;7.91;94.99;100433.16;5042487;28;20090;-54
2022/02/06 05:45:38;;;;;;;63.45;6.88;;;;;;;7.93;94.96;100435.69;5037721;28;20409;-55
2022/02/06 05:48:04;;;;;;;66.47;6.57;;;;;;;7.90;95.06;100419.97;5041276;28;20041;-55
2022/02/06 05:50:30;;;;;;;76.35;8.60;;;;;;;7.89;95.38;100429.81;5033091;28;20041;-53
2022/02/06 05:52:55;;;;;;;80.25;8.75;;;;;;;7.90;95.31;100434.19;5044114;28;20063;-53
2022/02/06 05:55:21;;;;;;;70.97;6.22;;;;;;;7.92;95.18;100420.59;5046751;28;20043;-55
2022/02/06 05:57:46;;;;;;;62.20;6.80;;;;;;;7.94;95.02;100409.72;5049889;28;20064;-53
2022/02/06 06:00:12;;;;;;;81.70;8.52;;;;;;;7.94;95.10;100421.28;5039942;28;20044;-55
2022/02/06 06:02:38;;;;;;;86.15;7.78;;;;;;;7.95;95.19;100406.84;5034108;28;20492;-53
2022/02/06 06:05:04;;;;;;;71.40;7.72;;;;;;;7.94;95.15;100393.66;5040802;28;20060;-54
2022/02/06 06:07:30;;;;;;;75.72;7.38;;;;;;;7.94;94.85;100390.97;5041832;28;20035;-53
2022/02/06 06:09:56;;;;;;;64.53;6.53;;;;;;;7.96;95.07;100397.81;5038298;28;20068;-56
2022/02/06 06:12:21;;;;;;;77.53;8.20;;;;;;;7.97;94.35;100387.94;5029080;28;20761;-54
2022/02/06 06:14:47;;;;;;;78.68;8.13;;;;;;;8.00;93.94;100383.03;5040402;28;20032;-55
2022/02/06 06:17:13;;;;;;;72.95;7.57;;;;;;;7.98;94.66;100373.50;5048164;28;20028;-54
2022/02/06 06:19:44;;;;;;;66.43;6.80;;;;;;;7.98;94.40;100369.00;5034991;28;20104;-54
2022/02/06 06:22:11;;;;;;;68.68;6.25;;;;;;;7.99;94.17;100370.66;5032633;28;20490;-55
2022/02/06 06:24:43;;;;;;;76.53;7.97;;;;;;;7.98;94.02;100362.78;5039196;28;20032;-54
2022/02/06 06:27:10;;;;;;;68.80;9.27;;;;;;;7.98;94.00;100347.56;5038453;28;20036;-54
2022/02/06 06:29:36;;;;;;;78.35;7.28;;;;;;;8.00;93.79;100337.47;5031818;28;20025;-55
2022/02/06 06:32:02;;;;;;;68.70;7.22;;;;;;;7.99;94.10;100333.16;5033001;28;20208;-55
2022/02/06 06:34:27;;;;;;;78.65;8.48;;;;;;;8.00;93.96;100342.84;5031321;28;20025;-54
2022/02/06 06:36:53;;;;;;;76.25;7.88;;;;;;;7.98;94.08;100350.25;5036256;28;20060;-55
2022/02/06 06:39:24;;;;;;;73.60;7.30;;;;;;;7.98;94.16;100342.22;5031178;28;20033;-55
2022/02/06 06:41:49;;;;;;;89.72;9.52;;;;;;;7.98;94.35;100341.34;5030014;28;20036;-55
2022/02/06 06:44:14;;;;;;;81.10;7.68;;;;;;;8.00;94.30;100332.13;5034151;28;20018;-54
2022/02/06 06:46:40;;;;;;;74.78;7.68;;;;;;;8.01;94.19;100320.41;5043748;28;20100;-54
2022/02/06 06:49:05;;;;;;;60.78;6.22;;;;;;;8.03;94.23;100310.34;5038263;28;20064;-54
2022/02/06 06:51:30;;;;;;;73.07;8.63;;;;;;;8.03;94.24;100301.47;5037698;28;20030;-55
2022/02/06 06:53:56;;;;;;;71.60;6.90;;;;;;;8.03;94.29;100307.69;5042439;28;20106;-54
2022/02/06 06:56:42;;;;;;;68.80;7.80;;;;;;;8.05;94.36;100288.72;5034841;28;20083;-55
2022/02/06 06:59:24;;;;;;;80.05;7.65;;;;;;;8.05;94.52;100294.09;5042671;28;20180;-55
2022/02/06 07:01:54;;;;;;;69.30;7.20;;;;;;;8.05;94.41;100305.63;5039022;28;20485;-54
2022/02/06 07:04:19;;;;;;;68.97;7.40;;;;;;;8.02;95.09;100284.56;5049244;28;20032;-54
2022/02/06 07:06:45;;;;;;;81.93;7.72;;;;;;;8.01;95.22;100282.91;5041247;28;20050;-56
2022/02/06 07:09:10;;;;;;;82.55;8.57;;;;;;;8.00;95.82;100270.50;5048126;28;20037;-55
2022/02/06 07:11:35;;;;;;;77.05;8.25;;;;;;;7.97;96.07;100264.66;5045045;28;20116;-55
2022/02/06 07:14:01;;;;;;;70.15;7.47;;;;;;;7.93;96.79;100256.16;5042650;28;20036;-55
2022/02/06 07:16:26;;;;;;;78.18;9.80;;;;;;;7.91;97.25;100255.50;5050573;28;20037;-53
2022/02/06 07:18:51;;;;;;;76.68;8.43;;;;;;;7.86;97.83;100242.63;5058080;28;20036;-53
2022/02/06 07:21:17;;;;;;;73.38;10.70;;;;;;;7.83;98.34;100261.75;5048185;28;20053;-53
2022/02/06 07:23:42;;;;;;;76.93;8.98;;;;;;;7.80;98.68;100237.19;5034214;28;20572;-53
2022/02/06 07:26:14;;;;;;;91.43;8.45;;;;;;;7.77;99.38;100229.50;5048092;28;20090;-55
2022/02/06 07:28:47;;;;;;;91.88;8.25;;;;;;;7.73;99.60;100220.13;5044083;28;20025;-53
2022/02/06 07:31:12;;;;;;;95.72;8.57;;;;;;;7.70;100.00;100246.25;5036890;28;20061;-55
2022/02/06 07:33:37;;;;;;;91.05;8.90;;;;;;;7.71;100.00;100228.34;5037876;28;20049;-54
2022/02/06 07:36:03;;;;;;;94.40;8.23;;;;;;;7.69;100.00;100215.16;5052717;28;20064;-53
2022/02/06 07:38:28;;;;;;;103.07;9.43;;;;;;;7.72;100.00;100207.78;5037868;28;20056;-54
2022/02/06 07:40:54;;;;;;;84.53;8.23;;;;;;;7.68;100.00;100197.38;5041644;28;20029;-53
2022/02/06 07:43:19;;;;;;;83.38;8.10;;;;;;;7.66;100.00;100178.00;5035830;28;20025;-52
2022/02/06 07:45:45;;;;;;;83.63;7.97;;;;;;;7.67;100.00;100193.06;5034760;28;20037;-53
2022/02/06 07:48:12;;;;;;;71.10;7.90;;;;;;;7.67;100.00;100182.34;5047709;28;20508;-53
2022/02/06 07:50:38;;;;;;;89.63;8.38;;;;;;;7.64;100.00;100180.03;5034935;28;20105;-55
2022/02/06 07:53:03;;;;;;;76.47;8.68;;;;;;;7.64;100.00;100166.63;5036728;28;20365;-57
2022/02/06 07:55:28;;;;;;;92.68;8.68;;;;;;;7.64;100.00;100142.53;5034326;28;20398;-56
2022/02/06 07:57:54;;;;;;;94.40;9.45;;;;;;;7.65;100.00;100160.25;5040602;28;20060;-56
2022/02/06 08:00:19;;;;;;;81.38;8.43;;;;;;;7.63;100.00;100146.22;5043794;28;20345;-55
2022/02/06 08:02:44;;;;;;;90.28;8.20;;;;;;;7.62;100.00;100131.16;5045393;28;20086;-54
2022/02/06 08:05:10;;;;;;;88.65;8.68;;;;;;;7.60;100.00;100141.22;5042943;28;20045;-55
2022/02/06 08:07:36;;;;;;;99.30;11.88;;;;;;;7.60;100.00;100111.75;5039920;28;20108;-54
2022/02/06 08:10:02;;;;;;;80.63;8.32;;;;;;;7.59;100.00;100120.81;5048845;28;20029;-54
2022/02/06 08:12:31;;;;;;;100.82;10.18;;;;;;;7.58;100.00;100121.84;5047927;28;20128;-55
2022/02/06 08:15:00;;;;;;;74.50;7.28;;;;;;;7.58;100.00;100097.75;5044526;28;20026;-55
2022/02/06 08:17:25;;;;;;;78.05;8.98;;;;;;;7.57;100.00;100087.19;5036362;28;20021;-54
2022/02/06 08:19:51;;;;;;;96.03;9.77;;;;;;;7.55;100.00;100068.63;5045306;28;20025;-53
2022/02/06 08:22:17;;;;;;;113.55;10.82;;;;;;;7.55;100.00;100084.69;5041295;28;20223;-54
2022/02/06 08:24:43;;;;;;;91.60;9.70;;;;;;;7.56;100.00;100064.94;5043097;28;20164;-55
2022/02/06 08:27:09;;;;;;;82.47;7.85;;;;;;;7.56;100.00;100064.94;5042099;28;20040;-55
2022/02/06 08:29:36;;;;;;;77.75;7.75;;;;;;;7.55;100.00;100063.25;5041095;28;20037;-55
2022/02/06 08:32:03;;;;;;;86.38;8.05;;;;;;;7.54;100.00;100042.88;5032435;28;20056;-53
2022/02/06 08:34:28;;;;;;;74.32;8.50;;;;;;;7.56;100.00;100051.56;5032295;28;20071;-53
2022/02/06 08:36:53;;;;;;;81.03;9.00;;;;;;;7.55;100.00;100012.38;5040368;28;20125;-54
2022/02/06 08:39:19;;;;;;;84.75;8.73;;;;;;;7.57;100.00;100012.22;5045920;28;20815;-55
2022/02/06 08:41:44;;;;;;;97.45;9.73;;;;;;;7.57;100.00;100026.44;5036104;28;20124;-52
2022/02/06 08:44:09;;;;;;;78.13;7.97;;;;;;;7.57;100.00;99996.16;5039054;28;20551;-54
2022/02/06 08:46:35;;;;;;;83.30;8.35;;;;;;;7.58;100.00;99987.09;5047213;28;20033;-52
2022/02/06 08:49:00;;;;;;;65.35;7.43;;;;;;;7.57;100.00;99999.66;5040614;28;20151;-49
2022/02/06 08:51:26;;;;;;;67.53;6.85;;;;;;;7.58;100.00;99992.44;5036776;28;20032;-50
2022/02/06 08:53:52;;;;;;;72.47;7.72;;;;;;;7.57;100.00;99975.56;5031842;28;20033;-51
2022/02/06 08:56:17;;;;;;;68.90;7.93;;;;;;;7.54;100.00;99959.88;5031514;28;20508;-50
2022/02/06 08:58:43;;;;;;;86.70;9.60;;;;;;;7.52;100.00;99948.50;5036540;28;20037;-52
2022/02/06 09:01:08;;;;;;;108.82;9.13;;;;;;;7.52;100.00;99951.19;5032513;28;20026;-54
2022/02/06 09:03:33;;;;;;;88.20;9.13;;;;;;;7.54;100.00;99940.31;5037776;28;20118;-54
2022/02/06 09:05:59;;;;;;;79.25;7.70;;;;;;;7.53;100.00;99939.47;5051804;28;20124;-56
2022/02/06 09:08:24;;;;;;;73.35;9.57;;;;;;;7.58;100.00;99933.53;5038898;28;20041;-54
2022/02/06 09:10:49;;;;;;;76.07;8.00;;;;;;;7.58;100.00;99946.94;5040359;28;20063;-55
2022/02/06 09:13:16;;;;;;;76.20;8.23;;;;;;;7.58;100.00;99926.38;5051449;28;20029;-55
2022/02/06 09:15:41;;;;;;;81.93;8.23;;;;;;;7.60;100.00;99923.47;5036814;28;20584;-54
2022/02/06 09:18:07;;;;;;;95.95;8.40;;;;;;;7.62;100.00;99921.47;5036002;28;20108;-54
2022/02/06 09:20:32;;;;;;;82.32;8.10;;;;;;;7.62;100.00;99900.84;5032888;28;20017;-53
2022/02/06 09:23:00;;;;;;;72.60;7.85;;;;;;;7.61;100.00;99891.19;5031301;28;20060;-55
2022/02/06 09:25:26;;;;;;;77.68;9.15;;;;;;;7.61;100.00;99901.03;5038101;28;20098;-53
2022/02/06 09:27:51;;;;;;;76.43;8.75;;;;;;;7.59;100.00;99895.88;5045879;28;20033;-54
2022/02/06 09:30:21;;;;;;;83.07;7.97;;;;;;;7.58;100.00;99872.81;5042465;28;20352;-52
2022/02/06 09:35:12;;;;;;;70.20;7.30;;;;;;;7.57;100.00;99876.47;5036615;28;20105;-51
2022/02/06 09:37:37;;;;;;;82.47;8.00;;;;;;;7.58;100.00;99854.06;5043067;28;20535;-55
2022/02/06 09:40:10;;;;;;;83.28;7.63;;;;;;;7.58;100.00;99870.13;5037371;28;20436;-56
2022/02/06 09:42:37;;;;;;;64.53;7.13;;;;;;;7.60;100.00;99862.72;5030180;28;20033;-52
2022/02/06 09:45:03;;;;;;;77.30;8.40;;;;;;;7.61;100.00;99855.50;5031617;28;20117;-55
2022/02/06 09:47:30;;;;;;;71.40;8.27;;;;;;;7.63;100.00;99856.16;5030413;28;20040;-51
2022/02/06 09:49:56;;;;;;;69.53;6.30;;;;;;;7.64;100.00;99847.94;5037885;28;20045;-55
2022/02/06 09:52:26;;;;;;;79.32;6.53;;;;;;;7.64;100.00;99823.03;5047870;28;20076;-55
2022/02/06 09:54:53;;;;;;;87.68;8.40;;;;;;;7.66;100.00;99829.84;5042607;28;20033;-56
2022/02/06 09:57:31;;;;;;;89.50;8.65;;;;;;;7.67;100.00;99826.16;5029808;28;20048;-57
2022/02/06 09:59:57;;;;;;;75.85;6.57;;;;;;;7.70;100.00;99820.41;5036055;28;20053;-56
2022/02/06 10:02:30;;;;;;;76.85;8.90;;;;;;;7.73;100.00;99816.53;5038174;28;20028;-56
2022/02/06 10:04:56;;;;;;;86.32;7.65;;;;;;;7.75;100.00;99814.50;5041321;28;20062;-56
2022/02/06 10:07:42;;;;;;;78.07;7.63;;;;;;;7.78;100.00;99821.31;5040783;28;20025;-54
2022/02/06 10:10:10;;;;;;;82.07;8.73;;;;;;;7.81;100.00;99812.91;5037472;28;20044;-55
2022/02/06 10:12:37;;;;;;;78.30;7.05;;;;;;;7.81;100.00;99794.16;5040663;28;20726;-56
2022/02/06 10:15:05;;;;;;;90.53;8.35;;;;;;;7.82;100.00;99803.84;5038428;28;20029;-57
2022/02/06 10:17:30;;;;;;;67.30;6.65;;;;;;;7.83;100.00;99776.06;5050114;28;20526;-56
2022/02/06 10:19:58;;;;;;;69.95;6.82;;;;;;;7.80;100.00;99765.72;5039828;28;20034;-54
2022/02/06 10:22:36;;;;;;;88.88;8.38;;;;;;;7.80;100.00;99746.97;5044568;28;20049;-52
2022/02/06 10:25:07;;;;;;;82.32;8.40;;;;;;;7.83;100.00;99741.22;5050885;28;20033;-54
2022/02/06 10:27:49;;;;;;;67.78;7.13;;;;;;;7.86;100.00;99739.00;5048291;28;20110;-56
2022/02/06 10:30:38;;;;;;;78.50;8.23;;;;;;;7.86;100.00;99756.91;5035447;28;20036;-55
2022/02/06 10:33:09;;;;;;;70.65;7.05;;;;;;;7.91;100.00;99730.38;5042013;28;20078;-56
2022/02/06 10:35:39;;;;;;;54.53;6.13;;;;;;;7.97;100.00;99766.28;5043421;28;20052;-57
2022/02/06 10:38:15;;;;;;;59.63;6.13;;;;;;;7.98;100.00;99760.75;5051447;28;20091;-56
2022/02/06 10:40:41;;;;;;;51.63;6.35;;;;;;;8.01;100.00;99756.88;5045053;28;20060;-55
2022/02/06 10:43:10;;;;;;;57.50;7.18;;;;;;;8.00;100.00;99806.91;5045858;28;20048;-52
2022/02/06 10:45:37;;;;;;;46.50;5.97;;;;;;;7.80;100.00;99879.03;5037725;28;20151;-50
2022/02/06 10:48:04;;;;;;;39.20;3.55;;;;;;;7.30;100.00;99887.88;5036975;28;20057;-54
2022/02/06 10:50:31;;;;;;;35.55;3.63;;;;;;;7.13;99.28;99893.34;5036369;28;20061;-56
2022/02/06 10:53:10;;;;;;;41.47;4.00;;;;;;;6.92;97.72;99893.25;5039411;28;20025;-56
2022/02/06 10:55:56;;;;;;;38.25;3.00;;;;;;;6.81;97.34;99886.50;5046549;28;20033;-56
2022/02/06 10:58:27;;;;;;;40.45;3.13;;;;;;;6.71;97.14;99891.25;5042977;28;20039;-57
2022/02/06 11:00:52;;;;;;;40.08;2.92;;;;;;;6.66;98.28;99905.19;5048056;28;20065;-56
2022/02/06 11:03:30;;;;;;;43.15;2.40;;;;;;;6.63;98.13;99907.38;5037955;28;20025;-56
2022/02/06 11:06:06;;;;;;;26.25;2.05;;;;;;;6.58;98.01;99902.53;5037966;28;20057;-56
2022/02/06 11:08:34;;;;;;;32.78;2.30;;;;;;;6.49;97.93;99911.66;5046433;28;20504;-54
2022/02/06 11:11:04;;;;;;;41.33;3.30;;;;;;;6.48;98.35;99910.00;5054580;28;20052;-55
2022/02/06 11:13:31;;;;;;;41.00;2.78;;;;;;;6.44;99.25;99909.50;5039084;28;20128;-56
2022/02/06 11:15:59;;;;;;;35.92;2.88;;;;;;;6.42;99.44;99921.38;5045996;28;20546;-56
2022/02/06 11:18:32;;;;;;;35.67;2.38;;;;;;;6.43;99.33;99917.72;5053101;28;20445;-54
2022/02/06 11:20:58;;;;;;;32.10;2.40;;;;;;;6.41;98.85;99930.41;5049188;28;20032;-54
2022/02/06 11:23:44;;;;;;;23.27;1.90;;;;;;;6.40;98.16;99923.41;5034635;28;20050;-52
2022/02/06 11:26:39;;;;;;;29.42;3.13;;;;;;;6.40;97.40;99932.28;5040848;28;20121;-52
2022/02/06 11:29:05;;;;;;;34.10;2.60;;;;;;;6.41;97.77;99946.47;5053364;28;20037;-51
2022/02/06 11:31:30;;;;;;;32.22;4.03;;;;;;;6.38;97.66;99947.66;5056044;28;20044;-49
2022/02/06 11:33:55;;;;;;;23.80;2.30;;;;;;;6.40;97.83;99950.97;5054596;28;20052;-51
2022/02/06 11:43:00;;;;;;;28.88;2.42;;;;;;;6.43;97.68;99907.03;5036318;28;20057;-50
2022/02/06 11:45:04;;;;;;;22.75;2.30;;;;;;;6.40;98.47;99886.84;5052240;28;20116;-49
2022/02/06 11:47:35;;;;;;;21.70;2.83;;;;;;;6.50;98.68;99905.28;5053212;28;20021;-48
2022/02/06 11:50:07;;;;;;;35.13;2.78;;;;;;;6.52;98.43;99916.63;5049843;28;20036;-47
2022/02/06 11:52:59;;;;;;;17.48;1.52;;;;;;;6.55;98.21;99926.97;5047099;28;20527;-47
2022/02/06 11:55:35;;;;;;;26.23;1.80;;;;;;;6.61;97.64;99910.25;5049230;28;20091;-51
2022/02/06 11:58:22;;;;;;;21.80;2.25;;;;;;;6.62;97.03;99922.59;5035581;28;20065;-47
2022/02/06 12:01:05;;;;;;;20.15;1.52;;;;;;;6.67;96.92;99925.56;5049842;28;20036;-48
2022/02/06 12:03:57;;;;;;;18.90;1.92;;;;;;;6.67;96.68;99928.22;5054564;28;20029;-50
2022/02/06 12:06:26;;;;;;;30.77;2.10;;;;;;;6.68;97.16;99932.56;5037023;28;20075;-49
2022/02/06 12:09:00;;;;;;;19.00;2.55;;;;;;;6.69;97.45;99934.22;5034552;28;20043;-47
2022/02/06 12:11:26;;;;;;;34.72;2.15;;;;;;;6.74;98.26;99939.03;5035278;28;20030;-50
2022/02/06 12:14:23;;;;;;;34.90;2.42;;;;;;;6.74;98.51;99937.19;5053399;28;20037;-49
2022/02/06 12:20:05;;;;;;;21.45;2.53;;;;;;;6.90;99.23;99938.06;5040887;28;20033;-47
2022/02/06 12:22:38;;;;;;;31.02;2.97;;;;;;;6.94;98.95;99939.38;5048865;28;20132;-47
2022/02/06 12:25:21;;;;;;;23.52;2.03;;;;;;;6.93;98.58;99935.88;5049077;28;20041;-47
2022/02/06 12:27:48;;;;;;;26.58;4.53;;;;;;;7.05;98.67;99933.56;5054605;28;20036;-50
2022/02/06 12:30:28;;;;;;;27.13;2.25;;;;;;;7.09;98.69;99945.59;5047956;28;20056;-48
2022/02/06 12:33:19;;;;;;;31.48;4.63;;;;;;;7.13;98.18;99936.16;5021647;28;20033;-47
2022/02/06 12:38:28;;;;;;;23.65;2.45;;;;;;;7.20;97.58;99925.59;5044505;28;20106;-50
2022/02/06 12:41:23;;;;;;;25.60;2.55;;;;;;;7.21;96.95;99929.91;5055154;28;20406;-43
2022/02/06 12:43:55;;;;;;;29.95;2.67;;;;;;;7.26;97.03;99946.25;5040190;28;20030;-41
2022/02/06 12:46:22;;;;;;;19.05;1.98;;;;;;;7.35;97.10;99939.00;5070612;28;20025;-42
2022/02/06 12:48:49;;;;;;;22.50;2.85;;;;;;;7.39;95.74;99941.09;5053017;28;20112;-41
2022/02/06 12:51:14;;;;;;;32.08;2.65;;;;;;;7.51;95.70;99949.53;5056357;28;20388;-42
2022/02/06 12:53:40;;;;;;;15.85;1.98;;;;;;;7.58;95.44;99955.81;5056363;28;20045;-41
2022/02/06 12:56:05;;;;;;;20.13;1.88;;;;;;;7.62;94.35;99940.19;5064351;28;20116;-42
2022/02/06 12:58:31;;;;;;;14.23;1.70;;;;;;;7.62;93.86;99945.56;5055116;28;20036;-42
2022/02/06 13:00:56;;;;;;;30.92;1.98;;;;;;;7.67;93.75;99952.03;5068620;28;20040;-41
2022/02/06 13:03:29;;;;;;;18.30;2.15;;;;;;;7.65;93.20;99940.66;5072428;28;20039;-42
2022/02/06 13:06:04;;;;;;;19.85;2.20;;;;;;;7.71;93.31;99947.13;5063559;28;20048;-42
2022/02/06 13:08:35;;;;;;;30.75;2.35;;;;;;;7.67;92.95;99954.69;5050574;28;20029;-43
2022/02/06 13:11:04;;;;;;;24.70;2.58;;;;;;;7.74;92.15;99959.31;5051486;28;20045;-41
2022/02/06 13:13:52;;;;;;;22.35;2.03;;;;;;;7.77;92.30;99950.91;5051580;28;20033;-42
2022/02/06 13:19:27;;;;;;;26.80;2.22;;;;;;;7.85;91.14;99950.81;5064202;28;20039;-42
2022/02/06 13:30:03;;;;;;;16.75;3.03;;;;;;;7.93;89.81;99958.75;5061374;28;20106;-42
2022/02/06 13:32:53;;;;;;;26.75;2.13;;;;;;;7.96;88.53;99969.09;5052908;28;20034;-43
2022/02/06 13:37:55;;;;;;;;;;;;;;;7.91;87.26;99961.59;5053607;28;20037;-42
2022/02/06 13:40:23;;;;;;;17.40;2.45;;;;;;;7.92;88.70;99975.84;5053529;28;19917;-42
2022/02/06 13:42:56;;;;;;;14.75;2.03;;;;;;;7.82;87.49;99967.25;5055185;28;20033;-41
2022/02/06 13:45:24;;;;;;;24.58;2.00;;;;;;;7.80;87.50;99990.72;5052408;28;20021;-42
2022/02/06 13:47:54;;;;;;;17.88;2.25;;;;;;;7.82;88.31;99989.53;5051024;28;20516;-43
2022/02/06 13:50:20;;;;;;;20.00;1.75;;;;;;;7.87;87.01;99983.59;5050045;28;20033;-42